sensor_id;sensor_type;location;lat;lon;timestamp;pressure;altitude;pressure_sealevel;temperature;humidity
54600;BME280;40500;51.084;16.958;2023-02-20T00:00:10;100991.56;;;0.29;100.00
54600;BME280;40500;51.084;16.958;2023-02-20T00:02:46;100995.88;;;0.30;100.00
54600;BME280;40500;51.084;16.958;2023-02-20T00:05:17;100991.24;;;0.30;100.00
54600;BME280;40500;51.084;16.958;2023-02-20T00:07:48;100989.52;;;0.30;100.00
54600;BME280;40500;51.084;16.958;2023-02-20T00:10:22;100983.33;;;0.31;100.00
54600;BME280;40500;51.084;16.958;2023-02-20T00:12:53;100983.84;;;0.31;100.00
54600;BME280;40500;51.084;16.958;2023-02-20T00:15:24;100989.29;;;0.33;100.00
54600;BME280;40500;51.084;16.958;2023-02-20T00:17:54;100986.77;;;0.35;100.00
54600;BME280;40500;51.084;16.958;2023-02-20T00:20:26;100979.61;;;0.38;100.00
54600;BME280;40500;51.084;16.958;2023-02-20T00:22:58;100975.92;;;0.41;100.00
54600;BME280;40500;51.084;16.958;2023-02-20T00:25:29;100971.01;;;0.43;100.00
54600;BME280;40500;51.084;16.958;2023-02-20T00:28:00;100966.61;;;0.45;100.00
54600;BME280;40500;51.084;16.958;2023-02-20T00:30:31;100960.48;;;0.48;100.00
54600;BME280;40500;51.084;16.958;2023-02-20T00:33:10;100957.27;;;0.50;100.00
54600;BME280;40500;51.084;16.958;2023-02-20T00:35:40;100945.45;;;0.52;100.00
54600;BME280;40500;51.084;16.958;2023-02-20T00:38:11;100942.23;;;0.53;100.00
54600;BME280;40500;51.084;16.958;2023-02-20T00:40:41;100940.55;;;0.54;100.00
54600;BME280;40500;51.084;16.958;2023-02-20T00:43:14;100936.50;;;0.57;100.00
54600;BME280;40500;51.084;16.958;2023-02-20T00:45:46;100941.02;;;0.58;100.00
54600;BME280;40500;51.084;16.958;2023-02-20T00:48:16;100938.80;;;0.58;100.00
54600;BME280;40500;51.084;16.958;2023-02-20T00:50:47;100938.59;;;0.58;100.00
54600;BME280;40500;51.084;16.958;2023-02-20T00:53:17;100938.09;;;0.58;100.00
54600;BME280;40500;51.084;16.958;2023-02-20T00:55:48;100935.52;;;0.58;100.00
54600;BME280;40500;51.084;16.958;2023-02-20T00:58:18;100939.14;;;0.58;100.00
54600;BME280;40500;51.084;16.958;2023-02-20T01:00:51;100942.45;;;0.60;100.00
54600;BME280;40500;51.084;16.958;2023-02-20T01:03:24;100937.19;;;0.62;100.00
54600;BME280;40500;51.084;16.958;2023-02-20T01:05:55;100935.54;;;0.65;100.00
54600;BME280;40500;51.084;16.958;2023-02-20T01:08:25;100935.98;;;0.68;100.00
54600;BME280;40500;51.084;16.958;2023-02-20T01:10:57;100935.19;;;0.70;100.00
54600;BME280;40500;51.084;16.958;2023-02-20T01:13:44;100935.11;;;0.72;100.00
54600;BME280;40500;51.084;16.958;2023-02-20T01:16:15;100939.33;;;0.74;100.00
54600;BME280;40500;51.084;16.958;2023-02-20T01:18:49;100935.95;;;0.77;100.00
54600;BME280;40500;51.084;16.958;2023-02-20T01:21:20;100929.10;;;0.78;100.00
54600;BME280;40500;51.084;16.958;2023-02-20T01:23:51;100932.40;;;0.79;100.00
54600;BME280;40500;51.084;16.958;2023-02-20T01:26:21;100923.64;;;0.80;100.00
54600;BME280;40500;51.084;16.958;2023-02-20T01:28:53;100927.85;;;0.83;100.00
54600;BME280;40500;51.084;16.958;2023-02-20T01:31:24;100918.79;;;0.85;100.00
54600;BME280;40500;51.084;16.958;2023-02-20T01:33:56;100914.41;;;0.88;100.00
54600;BME280;40500;51.084;16.958;2023-02-20T01:36:28;100906.77;;;0.91;100.00
54600;BME280;40500;51.084;16.958;2023-02-20T01:38:59;100902.87;;;0.94;100.00
54600;BME280;40500;51.084;16.958;2023-02-20T01:41:29;100897.08;;;0.96;100.00
54600;BME280;40500;51.084;16.958;2023-02-20T01:44:02;100896.10;;;0.98;100.00
54600;BME280;40500;51.084;16.958;2023-02-20T01:46:53;100883.41;;;1.00;100.00
54600;BME280;40500;51.084;16.958;2023-02-20T01:49:30;100874.83;;;1.02;100.00
54600;BME280;40500;51.084;16.958;2023-02-20T01:52:10;100869.02;;;1.04;100.00
54600;BME280;40500;51.084;16.958;2023-02-20T01:54:40;100869.06;;;1.05;100.00
54600;BME280;40500;51.084;16.958;2023-02-20T01:57:18;100872.77;;;1.08;100.00
54600;BME280;40500;51.084;16.958;2023-02-20T01:59:50;100867.77;;;1.08;100.00
54600;BME280;40500;51.084;16.958;2023-02-20T02:02:23;100873.54;;;1.11;100.00
54600;BME280;40500;51.084;16.958;2023-02-20T02:04:55;100870.11;;;1.11;100.00
54600;BME280;40500;51.084;16.958;2023-02-20T02:07:26;100863.73;;;1.11;100.00
54600;BME280;40500;51.084;16.958;2023-02-20T02:10:01;100862.21;;;1.13;100.00
54600;BME280;40500;51.084;16.958;2023-02-20T02:12:33;100862.29;;;1.15;100.00
54600;BME280;40500;51.084;16.958;2023-02-20T02:15:13;100864.73;;;1.16;100.00
54600;BME280;40500;51.084;16.958;2023-02-20T02:18:10;100855.05;;;1.15;100.00
54600;BME280;40500;51.084;16.958;2023-02-20T02:21:05;100847.04;;;1.13;100.00
54600;BME280;40500;51.084;16.958;2023-02-20T02:30:35;100829.89;;;1.04;100.00
54600;BME280;40500;51.084;16.958;2023-02-20T02:36:25;100833.52;;;0.98;100.00
54600;BME280;40500;51.084;16.958;2023-02-20T02:39:07;100829.37;;;0.98;100.00
54600;BME280;40500;51.084;16.958;2023-02-20T02:41:48;100832.23;;;0.96;100.00
54600;BME280;40500;51.084;16.958;2023-02-20T02:44:26;100824.04;;;0.93;100.00
54600;BME280;40500;51.084;16.958;2023-02-20T02:47:03;100812.73;;;0.89;100.00
54600;BME280;40500;51.084;16.958;2023-02-20T02:49:40;100802.67;;;0.88;100.00
54600;BME280;40500;51.084;16.958;2023-02-20T02:52:13;100806.34;;;0.89;100.00
54600;BME280;40500;51.084;16.958;2023-02-20T02:55:04;100812.02;;;0.89;100.00
54600;BME280;40500;51.084;16.958;2023-02-20T02:57:35;100811.72;;;0.90;100.00
54600;BME280;40500;51.084;16.958;2023-02-20T03:00:11;100808.98;;;0.92;100.00
54600;BME280;40500;51.084;16.958;2023-02-20T03:02:42;100806.59;;;0.92;100.00
54600;BME280;40500;51.084;16.958;2023-02-20T03:05:18;100800.05;;;0.92;100.00
54600;BME280;40500;51.084;16.958;2023-02-20T03:07:54;100802.83;;;0.93;100.00
54600;BME280;40500;51.084;16.958;2023-02-20T03:10:27;100798.02;;;0.94;100.00
54600;BME280;40500;51.084;16.958;2023-02-20T03:13:05;100793.73;;;0.95;100.00
54600;BME280;40500;51.084;16.958;2023-02-20T03:15:39;100790.29;;;0.95;100.00
54600;BME280;40500;51.084;16.958;2023-02-20T03:18:19;100786.21;;;0.97;100.00
54600;BME280;40500;51.084;16.958;2023-02-20T03:20:56;100788.89;;;1.00;100.00
54600;BME280;40500;51.084;16.958;2023-02-20T03:23:31;100786.38;;;1.02;100.00
54600;BME280;40500;51.084;16.958;2023-02-20T03:26:06;100783.54;;;1.05;100.00
54600;BME280;40500;51.084;16.958;2023-02-20T03:28:50;100779.86;;;1.09;100.00
54600;BME280;40500;51.084;16.958;2023-02-20T03:31:27;100784.21;;;1.11;100.00
54600;BME280;40500;51.084;16.958;2023-02-20T03:34:07;100790.85;;;1.14;100.00
54600;BME280;40500;51.084;16.958;2023-02-20T03:37:01;100801.97;;;1.16;100.00
54600;BME280;40500;51.084;16.958;2023-02-20T03:39:54;100805.82;;;1.19;100.00
54600;BME280;40500;51.084;16.958;2023-02-20T03:42:48;100804.69;;;1.22;100.00
54600;BME280;40500;51.084;16.958;2023-02-20T03:45:41;100800.23;;;1.23;100.00
54600;BME280;40500;51.084;16.958;2023-02-20T03:48:21;100792.87;;;1.24;100.00
54600;BME280;40500;51.084;16.958;2023-02-20T03:50:55;100788.07;;;1.26;100.00
54600;BME280;40500;51.084;16.958;2023-02-20T03:53:51;100783.27;;;1.27;100.00
54600;BME280;40500;51.084;16.958;2023-02-20T03:56:26;100785.55;;;1.28;100.00
54600;BME280;40500;51.084;16.958;2023-02-20T03:59:02;100780.23;;;1.29;100.00
54600;BME280;40500;51.084;16.958;2023-02-20T04:01:37;100778.54;;;1.30;100.00
54600;BME280;40500;51.084;16.958;2023-02-20T04:04:11;100771.47;;;1.30;100.00
54600;BME280;40500;51.084;16.958;2023-02-20T04:06:44;100764.93;;;1.31;100.00
54600;BME280;40500;51.084;16.958;2023-02-20T04:09:19;100763.77;;;1.33;100.00
54600;BME280;40500;51.084;16.958;2023-02-20T04:11:53;100762.06;;;1.33;100.00
54600;BME280;40500;51.084;16.958;2023-02-20T04:14:29;100754.80;;;1.33;100.00
54600;BME280;40500;51.084;16.958;2023-02-20T04:17:04;100741.81;;;1.31;100.00
54600;BME280;40500;51.084;16.958;2023-02-20T04:19:37;100735.91;;;1.30;100.00
54600;BME280;40500;51.084;16.958;2023-02-20T04:22:12;100728.31;;;1.30;100.00
54600;BME280;40500;51.084;16.958;2023-02-20T04:24:49;100735.59;;;1.30;100.00
54600;BME280;40500;51.084;16.958;2023-02-20T04:27:22;100740.59;;;1.30;100.00
54600;BME280;40500;51.084;16.958;2023-02-20T04:29:57;100740.27;;;1.32;100.00
54600;BME280;40500;51.084;16.958;2023-02-20T04:32:31;100739.11;;;1.33;100.00
54600;BME280;40500;51.084;16.958;2023-02-20T04:35:03;100744.50;;;1.34;100.00
54600;BME280;40500;51.084;16.958;2023-02-20T04:37:34;100747.64;;;1.36;100.00
54600;BME280;40500;51.084;16.958;2023-02-20T04:40:05;100741.83;;;1.38;100.00
54600;BME280;40500;51.084;16.958;2023-02-20T04:42:36;100745.83;;;1.39;100.00
54600;BME280;40500;51.084;16.958;2023-02-20T04:45:07;100739.80;;;1.39;100.00
54600;BME280;40500;51.084;16.958;2023-02-20T04:47:37;100738.96;;;1.40;100.00
54600;BME280;40500;51.084;16.958;2023-02-20T04:50:08;100735.38;;;1.42;100.00
54600;BME280;40500;51.084;16.958;2023-02-20T04:52:39;100724.20;;;1.44;100.00
54600;BME280;40500;51.084;16.958;2023-02-20T04:55:10;100717.18;;;1.45;100.00
54600;BME280;40500;51.084;16.958;2023-02-20T04:57:40;100714.61;;;1.46;100.00
54600;BME280;40500;51.084;16.958;2023-02-20T05:00:13;100710.66;;;1.47;100.00
54600;BME280;40500;51.084;16.958;2023-02-20T05:02:44;100714.88;;;1.50;100.00
54600;BME280;40500;51.084;16.958;2023-02-20T05:05:19;100710.44;;;1.51;100.00
54600;BME280;40500;51.084;16.958;2023-02-20T05:07:52;100701.88;;;1.54;100.00
54600;BME280;40500;51.084;16.958;2023-02-20T05:10:26;100692.42;;;1.56;100.00
54600;BME280;40500;51.084;16.958;2023-02-20T05:12:57;100696.27;;;1.58;100.00
54600;BME280;40500;51.084;16.958;2023-02-20T05:15:31;100698.91;;;1.60;100.00
54600;BME280;40500;51.084;16.958;2023-02-20T05:18:02;100691.71;;;1.62;100.00
54600;BME280;40500;51.084;16.958;2023-02-20T05:20:33;100697.48;;;1.65;100.00
54600;BME280;40500;51.084;16.958;2023-02-20T05:23:21;100691.30;;;1.66;100.00
54600;BME280;40500;51.084;16.958;2023-02-20T05:25:52;100693.92;;;1.67;100.00
54600;BME280;40500;51.084;16.958;2023-02-20T05:28:22;100690.86;;;1.69;100.00
54600;BME280;40500;51.084;16.958;2023-02-20T05:30:53;100686.60;;;1.72;100.00
54600;BME280;40500;51.084;16.958;2023-02-20T05:33:26;100680.29;;;1.74;100.00
54600;BME280;40500;51.084;16.958;2023-02-20T05:35:56;100678.28;;;1.77;100.00
54600;BME280;40500;51.084;16.958;2023-02-20T05:38:27;100678.50;;;1.80;100.00
54600;BME280;40500;51.084;16.958;2023-02-20T05:40:57;100680.45;;;1.81;100.00
54600;BME280;40500;51.084;16.958;2023-02-20T05:43:28;100684.46;;;1.84;100.00
54600;BME280;40500;51.084;16.958;2023-02-20T05:45:59;100684.18;;;1.86;100.00
54600;BME280;40500;51.084;16.958;2023-02-20T05:48:29;100676.98;;;1.88;100.00
54600;BME280;40500;51.084;16.958;2023-02-20T05:51:00;100682.17;;;1.89;100.00
54600;BME280;40500;51.084;16.958;2023-02-20T05:53:31;100685.46;;;1.89;100.00
54600;BME280;40500;51.084;16.958;2023-02-20T05:56:05;100686.38;;;1.91;100.00
54600;BME280;40500;51.084;16.958;2023-02-20T05:58:35;100681.55;;;1.92;100.00
54600;BME280;40500;51.084;16.958;2023-02-20T06:01:06;100683.33;;;1.94;100.00
54600;BME280;40500;51.084;16.958;2023-02-20T06:03:39;100678.70;;;1.95;100.00
54600;BME280;40500;51.084;16.958;2023-02-20T06:06:10;100675.64;;;1.97;100.00
54600;BME280;40500;51.084;16.958;2023-02-20T06:08:41;100664.64;;;2.00;100.00
54600;BME280;40500;51.084;16.958;2023-02-20T06:11:13;100658.45;;;2.00;100.00
54600;BME280;40500;51.084;16.958;2023-02-20T06:13:45;100660.18;;;2.02;100.00
54600;BME280;40500;51.084;16.958;2023-02-20T06:16:22;100663.67;;;2.02;100.00
54600;BME280;40500;51.084;16.958;2023-02-20T06:18:53;100663.88;;;2.04;100.00
54600;BME280;40500;51.084;16.958;2023-02-20T06:21:28;100670.67;;;2.07;100.00
54600;BME280;40500;51.084;16.958;2023-02-20T06:23:59;100661.89;;;2.08;100.00
54600;BME280;40500;51.084;16.958;2023-02-20T06:26:40;100662.48;;;2.11;100.00
54600;BME280;40500;51.084;16.958;2023-02-20T06:29:12;100661.00;;;2.14;100.00
54600;BME280;40500;51.084;16.958;2023-02-20T06:31:43;100664.02;;;2.18;100.00
54600;BME280;40500;51.084;16.958;2023-02-20T06:34:15;100664.82;;;2.23;100.00
54600;BME280;40500;51.084;16.958;2023-02-20T06:36:45;100661.82;;;2.28;100.00
54600;BME280;40500;51.084;16.958;2023-02-20T06:39:15;100651.73;;;2.32;100.00
54600;BME280;40500;51.084;16.958;2023-02-20T06:41:46;100651.48;;;2.38;100.00
54600;BME280;40500;51.084;16.958;2023-02-20T06:44:16;100642.07;;;2.43;100.00
54600;BME280;40500;51.084;16.958;2023-02-20T06:46:47;100637.33;;;2.47;100.00
54600;BME280;40500;51.084;16.958;2023-02-20T06:49:17;100646.60;;;2.52;100.00
54600;BME280;40500;51.084;16.958;2023-02-20T06:51:54;100647.03;;;2.55;100.00
54600;BME280;40500;51.084;16.958;2023-02-20T06:54:24;100643.31;;;2.60;100.00
54600;BME280;40500;51.084;16.958;2023-02-20T06:56:55;100633.60;;;2.67;100.00
54600;BME280;40500;51.084;16.958;2023-02-20T06:59:28;100632.21;;;2.76;100.00
54600;BME280;40500;51.084;16.958;2023-02-20T07:01:59;100632.51;;;2.83;100.00
54600;BME280;40500;51.084;16.958;2023-02-20T07:04:32;100634.70;;;2.88;100.00
54600;BME280;40500;51.084;16.958;2023-02-20T07:07:02;100642.00;;;2.91;100.00
54600;BME280;40500;51.084;16.958;2023-02-20T07:09:33;100634.11;;;2.94;100.00
54600;BME280;40500;51.084;16.958;2023-02-20T07:24:27;100607.83;;;3.24;100.00
54600;BME280;40500;51.084;16.958;2023-02-20T07:26:59;100599.60;;;3.29;100.00
54600;BME280;40500;51.084;16.958;2023-02-20T07:29:52;100598.47;;;3.34;100.00
54600;BME280;40500;51.084;16.958;2023-02-20T07:32:48;100586.11;;;3.40;100.00
54600;BME280;40500;51.084;16.958;2023-02-20T07:35:40;100576.02;;;3.47;100.00
54600;BME280;40500;51.084;16.958;2023-02-20T07:38:27;100571.60;;;3.53;100.00
54600;BME280;40500;51.084;16.958;2023-02-20T07:45:12;100556.29;;;3.70;100.00
54600;BME280;40500;51.084;16.958;2023-02-20T07:47:45;100551.89;;;3.78;100.00
54600;BME280;40500;51.084;16.958;2023-02-20T07:50:17;100540.91;;;3.86;100.00
54600;BME280;40500;51.084;16.958;2023-02-20T07:52:51;100543.45;;;3.94;100.00
54600;BME280;40500;51.084;16.958;2023-02-20T07:55:32;100540.09;;;4.02;100.00
54600;BME280;40500;51.084;16.958;2023-02-20T07:58:10;100526.65;;;4.08;100.00
54600;BME280;40500;51.084;16.958;2023-02-20T08:00:50;100528.44;;;4.13;100.00
54600;BME280;40500;51.084;16.958;2023-02-20T08:03:28;100531.95;;;4.17;100.00
54600;BME280;40500;51.084;16.958;2023-02-20T08:06:08;100524.02;;;4.21;100.00
54600;BME280;40500;51.084;16.958;2023-02-20T08:08:47;100523.73;;;4.25;100.00
54600;BME280;40500;51.084;16.958;2023-02-20T08:11:24;100521.88;;;4.30;100.00
54600;BME280;40500;51.084;16.958;2023-02-20T08:13:56;100520.90;;;4.34;100.00
54600;BME280;40500;51.084;16.958;2023-02-20T08:16:29;100518.34;;;4.39;100.00
54600;BME280;40500;51.084;16.958;2023-02-20T08:19:00;100508.85;;;4.44;100.00
54600;BME280;40500;51.084;16.958;2023-02-20T08:21:40;100501.30;;;4.49;100.00
54600;BME280;40500;51.084;16.958;2023-02-20T08:24:14;100500.33;;;4.57;100.00
54600;BME280;40500;51.084;16.958;2023-02-20T08:27:01;100492.77;;;4.65;100.00
54600;BME280;40500;51.084;16.958;2023-02-20T08:29:46;100493.20;;;4.73;100.00
54600;BME280;40500;51.084;16.958;2023-02-20T08:32:35;100487.02;;;4.80;100.00
54600;BME280;40500;51.084;16.958;2023-02-20T08:35:20;100489.36;;;4.91;100.00
54600;BME280;40500;51.084;16.958;2023-02-20T08:38:01;100487.73;;;5.04;100.00
54600;BME280;40500;51.084;16.958;2023-02-20T08:40:39;100483.49;;;5.16;100.00
54600;BME280;40500;51.084;16.958;2023-02-20T08:43:36;100474.90;;;5.29;100.00
54600;BME280;40500;51.084;16.958;2023-02-20T08:46:17;100472.02;;;5.41;100.00
54600;BME280;40500;51.084;16.958;2023-02-20T08:49:06;100466.54;;;5.53;100.00
54600;BME280;40500;51.084;16.958;2023-02-20T08:51:47;100457.40;;;5.64;100.00
54600;BME280;40500;51.084;16.958;2023-02-20T08:54:25;100448.44;;;5.80;100.00
54600;BME280;40500;51.084;16.958;2023-02-20T08:57:38;100436.38;;;6.03;100.00
54600;BME280;40500;51.084;16.958;2023-02-20T09:00:23;100435.57;;;6.24;100.00
54600;BME280;40500;51.084;16.958;2023-02-20T09:03:01;100422.21;;;6.38;100.00
54600;BME280;40500;51.084;16.958;2023-02-20T09:05:51;100427.09;;;6.45;100.00
54600;BME280;40500;51.084;16.958;2023-02-20T09:08:29;100419.11;;;6.51;100.00
54600;BME280;40500;51.084;16.958;2023-02-20T09:11:03;100415.11;;;6.57;100.00
54600;BME280;40500;51.084;16.958;2023-02-20T09:13:46;100414.41;;;6.62;100.00
54600;BME280;40500;51.084;16.958;2023-02-20T09:16:25;100411.63;;;6.68;100.00
54600;BME280;40500;51.084;16.958;2023-02-20T09:19:01;100409.72;;;6.73;100.00
54600;BME280;40500;51.084;16.958;2023-02-20T09:21:43;100409.37;;;6.78;100.00
54600;BME280;40500;51.084;16.958;2023-02-20T09:24:37;100396.13;;;6.86;100.00
54600;BME280;40500;51.084;16.958;2023-02-20T09:27:08;100395.59;;;6.97;100.00
54600;BME280;40500;51.084;16.958;2023-02-20T09:30:27;100400.46;;;7.02;100.00
54600;BME280;40500;51.084;16.958;2023-02-20T09:33:00;100392.98;;;7.02;100.00
54600;BME280;40500;51.084;16.958;2023-02-20T09:35:34;100381.14;;;7.02;100.00
54600;BME280;40500;51.084;16.958;2023-02-20T09:38:14;100367.37;;;7.05;100.00
54600;BME280;40500;51.084;16.958;2023-02-20T09:40:47;100357.44;;;7.08;100.00
54600;BME280;40500;51.084;16.958;2023-02-20T09:43:53;100364.92;;;7.12;100.00
54600;BME280;40500;51.084;16.958;2023-02-20T09:46:47;100352.55;;;7.17;100.00
54600;BME280;40500;51.084;16.958;2023-02-20T09:49:50;100353.05;;;7.20;100.00
54600;BME280;40500;51.084;16.958;2023-02-20T09:52:23;100339.11;;;7.26;100.00
54600;BME280;40500;51.084;16.958;2023-02-20T09:55:07;100329.17;;;7.30;100.00
54600;BME280;40500;51.084;16.958;2023-02-20T09:57:57;100336.83;;;7.28;100.00
54600;BME280;40500;51.084;16.958;2023-02-20T10:03:30;100342.23;;;7.29;100.00
54600;BME280;40500;51.084;16.958;2023-02-20T10:06:21;100339.77;;;7.35;100.00
54600;BME280;40500;51.084;16.958;2023-02-20T10:08:59;100329.64;;;7.41;100.00
54600;BME280;40500;51.084;16.958;2023-02-20T10:11:51;100310.48;;;7.41;100.00
54600;BME280;40500;51.084;16.958;2023-02-20T10:14:50;100287.13;;;7.44;100.00
54600;BME280;40500;51.084;16.958;2023-02-20T10:17:35;100271.42;;;7.49;100.00
54600;BME280;40500;51.084;16.958;2023-02-20T10:20:14;100266.31;;;7.59;100.00
54600;BME280;40500;51.084;16.958;2023-02-20T10:23:02;100267.95;;;7.72;100.00
54600;BME280;40500;51.084;16.958;2023-02-20T10:25:40;100254.45;;;7.87;100.00
54600;BME280;40500;51.084;16.958;2023-02-20T10:28:15;100247.87;;;8.03;100.00
54600;BME280;40500;51.084;16.958;2023-02-20T10:31:08;100243.42;;;8.14;100.00
54600;BME280;40500;51.084;16.958;2023-02-20T10:33:50;100227.49;;;8.22;100.00
54600;BME280;40500;51.084;16.958;2023-02-20T10:36:39;100208.40;;;8.28;100.00
54600;BME280;40500;51.084;16.958;2023-02-20T10:39:15;100195.42;;;8.36;100.00
54600;BME280;40500;51.084;16.958;2023-02-20T10:42:00;100180.56;;;8.41;100.00
54600;BME280;40500;51.084;16.958;2023-02-20T10:44:38;100174.04;;;8.48;100.00
54600;BME280;40500;51.084;16.958;2023-02-20T10:47:24;100168.86;;;8.59;100.00
54600;BME280;40500;51.084;16.958;2023-02-20T10:50:04;100166.14;;;8.69;100.00
54600;BME280;40500;51.084;16.958;2023-02-20T10:52:42;100156.80;;;8.76;100.00
54600;BME280;40500;51.084;16.958;2023-02-20T10:55:19;100147.29;;;8.81;100.00
54600;BME280;40500;51.084;16.958;2023-02-20T10:57:56;100143.21;;;8.86;100.00
54600;BME280;40500;51.084;16.958;2023-02-20T11:00:31;100142.16;;;8.87;100.00
54600;BME280;40500;51.084;16.958;2023-02-20T11:03:11;100147.04;;;8.87;100.00
54600;BME280;40500;51.084;16.958;2023-02-20T11:05:50;100148.38;;;8.92;100.00
54600;BME280;40500;51.084;16.958;2023-02-20T11:08:43;100139.20;;;8.99;100.00
54600;BME280;40500;51.084;16.958;2023-02-20T11:11:30;100125.83;;;9.06;100.00
54600;BME280;40500;51.084;16.958;2023-02-20T11:14:14;100125.55;;;9.14;100.00
54600;BME280;40500;51.084;16.958;2023-02-20T11:16:49;100126.28;;;9.24;100.00
54600;BME280;40500;51.084;16.958;2023-02-20T11:19:27;100122.97;;;9.34;100.00
54600;BME280;40500;51.084;16.958;2023-02-20T11:22:00;100106.16;;;9.47;100.00
54600;BME280;40500;51.084;16.958;2023-02-20T11:24:35;100112.45;;;9.58;100.00
54600;BME280;40500;51.084;16.958;2023-02-20T11:27:14;100108.63;;;9.67;100.00
54600;BME280;40500;51.084;16.958;2023-02-20T11:29:50;100093.59;;;9.77;100.00
54600;BME280;40500;51.084;16.958;2023-02-20T11:32:35;100087.91;;;9.92;100.00
54600;BME280;40500;51.084;16.958;2023-02-20T11:35:27;100091.85;;;10.06;100.00
54600;BME280;40500;51.084;16.958;2023-02-20T11:38:32;100085.04;;;10.14;100.00
54600;BME280;40500;51.084;16.958;2023-02-20T11:41:24;100061.41;;;10.24;100.00
54600;BME280;40500;51.084;16.958;2023-02-20T11:44:21;100069.30;;;10.34;100.00
54600;BME280;40500;51.084;16.958;2023-02-20T11:47:19;100064.09;;;10.40;100.00
54600;BME280;40500;51.084;16.958;2023-02-20T11:50:11;100056.36;;;10.50;100.00
54600;BME280;40500;51.084;16.958;2023-02-20T11:53:01;100057.13;;;10.55;100.00
54600;BME280;40500;51.084;16.958;2023-02-20T11:55:49;100042.21;;;10.57;100.00
54600;BME280;40500;51.084;16.958;2023-02-20T11:58:28;100029.19;;;10.59;100.00
54600;BME280;40500;51.084;16.958;2023-02-20T12:00:59;100030.41;;;10.60;100.00
54600;BME280;40500;51.084;16.958;2023-02-20T12:03:32;100017.30;;;10.59;100.00
54600;BME280;40500;51.084;16.958;2023-02-20T12:06:34;100003.42;;;10.60;100.00
54600;BME280;40500;51.084;16.958;2023-02-20T12:09:12;99992.14;;;10.64;100.00
54600;BME280;40500;51.084;16.958;2023-02-20T12:11:51;99985.10;;;10.66;100.00
54600;BME280;40500;51.084;16.958;2023-02-20T12:14:27;99976.11;;;10.68;100.00
54600;BME280;40500;51.084;16.958;2023-02-20T12:17:10;99964.80;;;10.74;100.00
54600;BME280;40500;51.084;16.958;2023-02-20T12:19:55;99970.80;;;10.78;100.00
54600;BME280;40500;51.084;16.958;2023-02-20T12:22:36;99960.10;;;10.86;100.00
54600;BME280;40500;51.084;16.958;2023-02-20T12:25:23;99957.05;;;10.96;100.00
54600;BME280;40500;51.084;16.958;2023-02-20T12:28:06;99943.13;;;10.99;100.00
54600;BME280;40500;51.084;16.958;2023-02-20T12:31:09;99927.49;;;11.08;100.00
54600;BME280;40500;51.084;16.958;2023-02-20T12:40:35;99893.05;;;11.38;100.00
54600;BME280;40500;51.084;16.958;2023-02-20T12:43:21;99884.23;;;11.53;100.00
54600;BME280;40500;51.084;16.958;2023-02-20T12:46:11;99874.76;;;11.65;100.00
54600;BME280;40500;51.084;16.958;2023-02-20T12:49:08;99870.84;;;11.74;100.00
54600;BME280;40500;51.084;16.958;2023-02-20T12:51:50;99857.30;;;11.99;100.00
54600;BME280;40500;51.084;16.958;2023-02-20T12:54:50;99847.73;;;12.31;100.00
54600;BME280;40500;51.084;16.958;2023-02-20T12:57:43;99847.96;;;12.45;100.00
54600;BME280;40500;51.084;16.958;2023-02-20T13:00:45;99849.60;;;12.33;100.00
54600;BME280;40500;51.084;16.958;2023-02-20T13:03:42;99849.34;;;12.07;100.00
54600;BME280;40500;51.084;16.958;2023-02-20T13:06:35;99829.34;;;12.07;100.00
54600;BME280;40500;51.084;16.958;2023-02-20T13:09:27;99819.77;;;12.15;100.00
54600;BME280;40500;51.084;16.958;2023-02-20T13:12:15;99815.60;;;12.09;100.00
54600;BME280;40500;51.084;16.958;2023-02-20T13:15:32;99804.44;;;12.01;100.00
54600;BME280;40500;51.084;16.958;2023-02-20T13:18:17;99809.62;;;11.98;100.00
54600;BME280;40500;51.084;16.958;2023-02-20T13:21:14;99805.87;;;12.90;100.00
54600;BME280;40500;51.084;16.958;2023-02-20T13:27:01;99790.81;;;15.04;100.00
54600;BME280;40500;51.084;16.958;2023-02-20T13:29:54;99780.14;;;16.02;100.00
54600;BME280;40500;51.084;16.958;2023-02-20T13:32:30;99774.00;;;16.37;100.00
54600;BME280;40500;51.084;16.958;2023-02-20T13:35:33;99764.58;;;16.46;100.00
54600;BME280;40500;51.084;16.958;2023-02-20T13:38:12;99764.19;;;16.95;100.00
54600;BME280;40500;51.084;16.958;2023-02-20T13:41:03;99764.19;;;17.29;100.00
54600;BME280;40500;51.084;16.958;2023-02-20T13:43:41;99769.55;;;17.04;100.00
54600;BME280;40500;51.084;16.958;2023-02-20T13:46:17;99771.95;;;16.36;99.12
54600;BME280;40500;51.084;16.958;2023-02-20T13:48:58;99765.93;;;15.55;100.00
54600;BME280;40500;51.084;16.958;2023-02-20T13:51:36;99759.95;;;15.32;100.00
54600;BME280;40500;51.084;16.958;2023-02-20T13:54:26;99757.22;;;15.49;100.00
54600;BME280;40500;51.084;16.958;2023-02-20T13:57:15;99760.20;;;15.18;100.00
54600;BME280;40500;51.084;16.958;2023-02-20T13:59:50;99764.96;;;14.98;100.00
54600;BME280;40500;51.084;16.958;2023-02-20T14:02:23;99766.99;;;15.00;99.98
54600;BME280;40500;51.084;16.958;2023-02-20T14:05:01;99765.56;;;15.32;100.00
54600;BME280;40500;51.084;16.958;2023-02-20T14:07:36;99760.19;;;15.34;99.25
54600;BME280;40500;51.084;16.958;2023-02-20T14:10:16;99765.66;;;15.07;99.90
54600;BME280;40500;51.084;16.958;2023-02-20T14:12:54;99760.15;;;15.00;100.00
54600;BME280;40500;51.084;16.958;2023-02-20T14:15:25;99761.48;;;14.78;100.00
54600;BME280;40500;51.084;16.958;2023-02-20T14:17:58;99763.64;;;14.55;100.00